Time;durP1;ratioP1;P1;durP2;ratioP2;P2;SDS_P1;SDS_P2;PMS_P1;PMS_P2;Temp;Humidity;BMP_temperature;BMP_pressure;BME280_temperature;BME280_humidity;BME280_pressure;Samples;Min_cycle;Max_cycle;Signal;HPM_P1;HPM_P2
2023/01/04 00:00:47;;;;;;;0.40;0.30;;;;;;;8.41;100.00;101855.69;5056787;27;97851;-29
2023/01/04 00:03:12;;;;;;;2.30;0.98;;;;;;;8.42;100.00;101851.19;5056835;27;99819;-28
2023/01/04 00:05:38;;;;;;;4.40;0.63;;;;;;;8.40;100.00;101836.88;5057549;27;96599;-30
2023/01/04 00:08:03;;;;;;;0.55;0.40;;;;;;;8.41;100.00;101844.91;5057220;27;96876;-30
2023/01/04 00:10:29;;;;;;;0.63;0.60;;;;;;;8.44;100.00;101834.00;5056978;27;97916;-29
2023/01/04 00:12:54;;;;;;;1.25;0.55;;;;;;;8.44;100.00;101836.72;5057049;27;97950;-29
2023/01/04 00:15:19;;;;;;;0.30;0.30;;;;;;;8.44;100.00;101812.41;5038303;27;96736;-28
2023/01/04 00:17:45;;;;;;;0.60;0.32;;;;;;;8.46;100.00;101826.72;5057298;27;96487;-29
2023/01/04 00:20:10;;;;;;;1.00;0.57;;;;;;;8.46;100.00;101828.53;5057150;27;97391;-30
2023/01/04 00:22:35;;;;;;;0.52;0.50;;;;;;;8.47;100.00;101828.47;5056587;27;98614;-28
2023/01/04 00:25:01;;;;;;;2.70;1.27;;;;;;;8.48;100.00;101818.56;5056458;27;96504;-29
2023/01/04 00:27:26;;;;;;;0.70;0.60;;;;;;;8.49;100.00;101823.03;5056620;27;97834;-29
2023/01/04 00:29:51;;;;;;;0.65;0.47;;;;;;;8.50;100.00;101824.78;5056705;27;98052;-28
2023/01/04 00:32:17;;;;;;;0.75;0.40;;;;;;;8.47;100.00;101806.00;5056789;27;97768;-30
2023/01/04 00:34:42;;;;;;;0.77;0.65;;;;;;;8.49;100.00;101812.25;5056800;27;96483;-29
2023/01/04 00:37:07;;;;;;;0.30;0.20;;;;;;;8.53;100.00;101799.50;5056701;27;96897;-29
2023/01/04 00:39:33;;;;;;;1.40;0.60;;;;;;;8.52;100.00;101795.03;5056427;27;104002;-29
2023/01/04 00:42:03;;;;;;;0.22;0.22;;;;;;;8.54;100.00;101810.25;5057058;27;97929;-29
2023/01/04 00:44:30;;;;;;;1.52;0.60;;;;;;;8.55;100.00;101789.50;5057080;27;96487;-29
2023/01/04 00:46:56;;;;;;;0.20;0.20;;;;;;;8.59;100.00;101777.66;5055238;27;96580;-29
2023/01/04 00:49:21;;;;;;;0.38;0.22;;;;;;;8.63;100.00;101790.13;5056035;27;97461;-29
2023/01/04 00:51:46;;;;;;;2.50;0.68;;;;;;;8.64;100.00;101781.94;5056508;27;97821;-29
2023/01/04 00:54:13;;;;;;;1.90;0.55;;;;;;;8.66;100.00;101769.25;5056606;27;96637;-29
2023/01/04 00:56:38;;;;;;;0.45;0.32;;;;;;;8.69;100.00;101785.34;5056784;27;96811;-28
2023/01/04 00:59:04;;;;;;;1.20;0.52;;;;;;;8.69;100.00;101777.22;5056745;27;97718;-29
2023/01/04 01:01:32;;;;;;;0.70;0.52;;;;;;;8.74;100.00;101774.34;5056259;27;97921;-30
2023/01/04 01:04:00;;;;;;;0.75;0.35;;;;;;;8.74;100.00;101777.06;5055165;27;96589;-29
2023/01/04 01:06:27;;;;;;;0.30;0.30;;;;;;;8.76;100.00;101764.38;5055468;27;96857;-29
2023/01/04 01:08:52;;;;;;;0.52;0.40;;;;;;;8.76;100.00;101744.59;5054535;27;101222;-28
2023/01/04 01:11:18;;;;;;;0.65;0.43;;;;;;;8.78;100.00;101753.53;5056110;27;97579;-29
2023/01/04 01:13:44;;;;;;;0.90;0.70;;;;;;;8.82;100.00;101741.63;5054460;27;96698;-29
2023/01/04 01:16:15;;;;;;;3.95;0.73;;;;;;;8.85;100.00;101755.03;5054774;27;96861;-28
2023/01/04 01:18:44;;;;;;;0.50;0.40;;;;;;;8.85;100.00;101749.63;5055890;27;98838;-28
2023/01/04 01:21:18;;;;;;;0.55;0.45;;;;;;;8.85;100.00;101749.63;5054540;27;100975;-28
2023/01/04 01:23:44;;;;;;;2.05;0.80;;;;;;;8.88;100.00;101734.16;5056110;27;96655;-28
2023/01/04 01:26:13;;;;;;;1.10;0.70;;;;;;;8.89;100.00;101735.94;5053197;27;96932;-28
2023/01/04 01:28:39;;;;;;;0.50;0.50;;;;;;;8.92;100.00;101737.63;5055410;27;99701;-28
2023/01/04 01:31:10;;;;;;;1.80;0.88;;;;;;;8.95;100.00;101742.91;5055871;27;99277;-29
2023/01/04 01:33:37;;;;;;;1.05;0.60;;;;;;;8.95;100.00;101751.00;5055953;27;96616;-29
2023/01/04 01:36:04;;;;;;;1.15;0.77;;;;;;;8.95;100.00;101742.91;5054742;27;96935;-28
2023/01/04 01:38:29;;;;;;;1.27;0.85;;;;;;;8.95;100.00;101747.44;5053664;27;101967;-28
2023/01/04 01:40:55;;;;;;;0.75;0.63;;;;;;;8.99;100.00;101744.56;5055435;27;99276;-28
2023/01/04 01:43:23;;;;;;;2.85;1.30;;;;;;;8.99;100.00;101732.88;5055558;27;96663;-29
2023/01/04 01:45:53;;;;;;;1.65;1.05;;;;;;;9.04;100.00;101744.38;5054553;27;96801;-29
2023/01/04 01:48:27;;;;;;;1.30;0.80;;;;;;;9.07;100.00;101733.44;5053988;27;100541;-30
2023/01/04 01:50:56;;;;;;;1.00;0.88;;;;;;;9.07;100.00;101738.84;5055656;27;97267;-28
2023/01/04 01:53:24;;;;;;;1.45;0.80;;;;;;;9.08;100.00;101713.56;5054360;27;96661;-28
2023/01/04 01:55:50;;;;;;;1.10;0.70;;;;;;;9.12;100.00;101732.28;5054502;27;96862;-28
2023/01/04 01:58:24;;;;;;;1.75;1.00;;;;;;;9.08;100.00;101718.97;5053783;27;100828;-28
2023/01/04 02:00:49;;;;;;;3.03;0.93;;;;;;;9.12;100.00;101716.06;5053919;27;100848;-29
2023/01/04 02:03:20;;;;;;;1.40;0.95;;;;;;;9.18;100.00;101714.06;5055358;27;96425;-29
2023/01/04 02:05:50;;;;;;;1.03;0.60;;;;;;;9.20;100.00;101725.69;5054303;27;96785;-29
2023/01/04 02:08:18;;;;;;;3.92;1.25;;;;;;;9.19;100.00;101719.41;5053546;27;100889;-29
2023/01/04 02:10:44;;;;;;;7.32;0.70;;;;;;;9.23;100.00;101726.44;5053504;27;100846;-28
2023/01/04 02:13:16;;;;;;;1.48;1.00;;;;;;;9.25;100.00;101740.78;5055558;27;96675;-28
2023/01/04 02:16:16;;;;;;;1.30;0.98;;;;;;;9.31;100.00;101736.94;5055590;27;96568;-28
2023/01/04 02:19:06;;;;;;;4.05;1.23;;;;;;;9.28;100.00;101719.03;5034252;27;97937;-29
2023/01/04 02:22:00;;;;;;;1.35;0.75;;;;;;;9.34;100.00;101716.06;5053960;27;100766;-29
2023/01/04 02:24:25;;;;;;;2.35;0.75;;;;;;;9.40;100.00;101728.44;5053882;27;96749;-29
2023/01/04 02:26:53;;;;;;;0.88;0.63;;;;;;;9.42;100.00;101714.88;5053133;27;96863;-28
2023/01/04 02:29:49;;;;;;;0.70;0.40;;;;;;;9.41;100.00;101723.91;5054377;27;98011;-28
2023/01/04 02:32:24;;;;;;;2.42;0.75;;;;;;;9.44;100.00;101713.84;5054979;27;97923;-29
2023/01/04 02:35:14;;;;;;;3.78;0.82;;;;;;;9.45;100.00;101712.00;5053943;27;96503;-29
2023/01/04 02:37:53;;;;;;;0.93;0.73;;;;;;;9.48;100.00;101714.56;5056725;27;96666;-29
2023/01/04 02:40:36;;;;;;;2.88;1.00;;;;;;;9.49;100.00;101711.81;5061946;27;97526;-29
2023/01/04 02:46:27;;;;;;;1.40;0.73;;;;;;;9.47;100.00;101692.06;5062379;27;96527;-29
2023/01/04 02:51:37;;;;;;;1.65;0.90;;;;;;;9.49;100.00;101698.31;5061651;27;97125;-29
2023/01/04 02:54:07;;;;;;;3.17;0.90;;;;;;;9.51;100.00;101711.72;5059725;27;98993;-28
2023/01/04 02:56:51;;;;;;;1.42;0.68;;;;;;;9.52;100.00;101708.97;5059685;27;96763;-29
2023/01/04 02:59:47;;;;;;;0.57;0.57;;;;;;;9.50;100.00;101691.94;5060130;27;96805;-28
2023/01/04 03:08:15;;;;;;;1.00;0.73;;;;;;;9.55;100.00;101694.44;5062019;27;96561;-28
2023/01/04 03:10:48;;;;;;;1.13;0.90;;;;;;;9.53;100.00;101691.81;5060052;27;97080;-29
2023/01/04 03:13:26;;;;;;;1.95;0.82;;;;;;;9.57;100.00;101681.72;5059685;27;100832;-28
2023/01/04 03:15:53;;;;;;;1.38;1.02;;;;;;;9.56;100.00;101661.91;5060198;27;98963;-29
2023/01/04 03:18:33;;;;;;;1.05;0.98;;;;;;;9.59;100.00;101655.50;5060083;27;96601;-28
2023/01/04 03:21:02;;;;;;;2.70;1.00;;;;;;;9.59;100.00;101641.97;5061648;27;96673;-28
2023/01/04 03:35:21;;;;;;;1.45;0.93;;;;;;;9.68;100.00;101651.50;5061491;27;97051;-28
2023/01/04 03:49:47;;;;;;;4.15;1.40;;;;;;;9.72;100.00;101645.88;5058909;27;97156;-30
2023/01/04 03:52:15;;;;;;;1.48;0.90;;;;;;;9.74;100.00;101634.97;5056932;27;96483;-28
2023/01/04 03:54:47;;;;;;;1.05;0.93;;;;;;;9.73;100.00;101628.69;5056192;27;96871;-28
2023/01/04 03:57:13;;;;;;;1.85;1.10;;;;;;;9.74;100.00;101622.34;5057327;27;97987;-28
2023/01/04 03:59:44;;;;;;;1.33;1.13;;;;;;;9.75;100.00;101637.63;5055862;27;100914;-29
2023/01/04 04:02:12;;;;;;;1.13;0.95;;;;;;;9.79;100.00;101627.53;5056296;27;96804;-30
2023/01/04 04:10:07;;;;;;;3.42;0.70;;;;;;;9.81;100.00;101612.09;5057501;27;96588;-28
2023/01/04 04:12:33;;;;;;;0.77;0.68;;;;;;;9.81;100.00;101611.25;5056002;27;96712;-29
2023/01/04 04:14:58;;;;;;;1.83;1.15;;;;;;;9.84;100.00;101590.31;5057124;27;96820;-29
2023/01/04 04:17:23;;;;;;;2.65;1.02;;;;;;;9.84;100.00;101605.69;5056328;27;98356;-28
2023/01/04 04:19:49;;;;;;;1.95;1.17;;;;;;;9.89;100.00;101611.75;5056761;27;99383;-28
2023/01/04 04:22:14;;;;;;;2.78;0.90;;;;;;;9.88;100.00;101605.47;5057211;27;96736;-29
2023/01/04 04:24:39;;;;;;;2.80;0.70;;;;;;;9.89;100.00;101590.09;5057308;27;96771;-28
2023/01/04 04:27:05;;;;;;;1.55;0.95;;;;;;;9.91;100.00;101601.75;5056359;27;97633;-29
2023/01/04 04:29:30;;;;;;;0.82;0.65;;;;;;;9.91;100.00;101589.06;5056733;27;97855;-29
2023/01/04 04:31:55;;;;;;;1.48;1.02;;;;;;;9.94;100.00;101604.31;5057199;27;97184;-29
2023/01/04 04:34:21;;;;;;;1.75;1.10;;;;;;;9.92;100.00;101587.28;5057488;27;96810;-29
2023/01/04 04:36:46;;;;;;;1.27;1.00;;;;;;;9.92;100.00;101585.44;5056920;27;102465;-30
2023/01/04 04:39:11;;;;;;;3.80;1.05;;;;;;;9.94;100.00;101596.19;5056341;27;97735;-29
2023/01/04 04:41:37;;;;;;;1.05;0.73;;;;;;;9.96;100.00;101588.84;5056527;27;96555;-28
2023/01/04 04:44:10;;;;;;;4.28;0.80;;;;;;;9.95;100.00;101589.81;5055272;27;96928;-29
2023/01/04 04:46:36;;;;;;;1.38;0.80;;;;;;;9.96;100.00;101597.88;5054791;27;99359;-29
2023/01/04 04:49:02;;;;;;;1.48;1.00;;;;;;;9.96;100.00;101603.28;5056863;27;97248;-29
2023/01/04 04:51:27;;;;;;;1.30;1.05;;;;;;;9.94;100.00;101597.06;5055274;27;96619;-28
2023/01/04 04:53:53;;;;;;;1.63;1.05;;;;;;;9.97;100.00;101593.34;5056763;27;96545;-29
2023/01/04 04:56:18;;;;;;;1.10;0.73;;;;;;;9.95;100.00;101579.00;5056344;27;98230;-29
2023/01/04 04:58:44;;;;;;;0.73;0.73;;;;;;;9.96;100.00;101591.56;5056623;27;99081;-30
2023/01/04 05:01:09;;;;;;;1.33;0.80;;;;;;;9.98;100.00;101577.00;5056335;27;97774;-29
2023/01/04 05:03:34;;;;;;;1.95;1.00;;;;;;;9.95;100.00;101544.69;5056622;27;96793;-29
2023/01/04 05:06:00;;;;;;;0.88;0.70;;;;;;;9.98;100.00;101576.13;5055841;27;97506;-28
2023/01/04 05:08:26;;;;;;;1.17;0.88;;;;;;;9.97;100.00;101568.97;5055927;27;99571;-30
2023/01/04 05:10:51;;;;;;;1.23;0.73;;;;;;;9.97;100.00;101575.28;5056497;27;96685;-29
2023/01/04 05:13:16;;;;;;;1.00;0.80;;;;;;;9.99;100.00;101567.97;5056517;27;96871;-28
2023/01/04 05:15:45;;;;;;;0.43;0.43;;;;;;;10.00;100.00;101568.84;5055936;27;98051;-29
2023/01/04 05:18:13;;;;;;;1.00;0.70;;;;;;;10.03;100.00;101560.56;5054629;27;100774;-29
2023/01/04 05:20:39;;;;;;;1.00;0.77;;;;;;;10.04;100.00;101550.63;5054920;27;96831;-28
2023/01/04 05:23:05;;;;;;;0.88;0.75;;;;;;;10.02;100.00;101544.41;5054860;27;96947;-30
2023/01/04 05:25:32;;;;;;;2.30;0.88;;;;;;;10.05;100.00;101558.66;5054447;27;101103;-31
2023/01/04 05:27:57;;;;;;;4.78;0.73;;;;;;;10.08;100.00;101555.81;5054100;27;100828;-28
2023/01/04 05:33:07;;;;;;;0.75;0.73;;;;;;;10.12;100.00;101552.00;5056628;27;96524;-30
2023/01/04 05:35:33;;;;;;;2.55;0.90;;;;;;;10.13;100.00;101540.22;5054338;27;100970;-29
2023/01/04 05:37:58;;;;;;;2.65;1.17;;;;;;;10.13;100.00;101534.81;5055550;27;97845;-28
2023/01/04 05:40:23;;;;;;;1.55;1.10;;;;;;;10.16;100.00;101525.66;5054908;27;96823;-29
2023/01/04 05:42:49;;;;;;;1.67;0.73;;;;;;;10.15;100.00;101521.19;5055653;27;96817;-29
2023/01/04 05:45:16;;;;;;;3.00;0.80;;;;;;;10.17;100.00;101531.00;5055773;27;98005;-29
2023/01/04 05:47:41;;;;;;;6.20;0.65;;;;;;;10.15;100.00;101523.91;5055719;27;98726;-29
2023/01/04 05:50:07;;;;;;;1.35;0.90;;;;;;;10.17;100.00;101528.28;5055999;27;96687;-28
2023/01/04 05:52:33;;;;;;;1.75;0.85;;;;;;;10.17;100.00;101520.16;5054658;27;96972;-28
2023/01/04 05:54:59;;;;;;;1.15;0.90;;;;;;;10.19;100.00;101504.72;5053848;27;97532;-29
2023/01/04 05:57:25;;;;;;;0.65;0.47;;;;;;;10.17;100.00;101501.22;5055359;27;97804;-28
2023/01/04 05:59:50;;;;;;;3.30;0.93;;;;;;;10.17;100.00;101500.34;5054204;27;96918;-28
2023/01/04 06:02:25;;;;;;;1.20;0.80;;;;;;;10.21;100.00;101521.78;5055738;27;96811;-29
2023/01/04 06:04:50;;;;;;;2.03;1.27;;;;;;;10.23;100.00;101535.25;5053941;27;100948;-29
2023/01/04 06:07:16;;;;;;;0.43;0.43;;;;;;;10.25;100.00;101538.75;5053887;27;100883;-28
2023/01/04 06:09:42;;;;;;;0.80;0.65;;;;;;;10.26;100.00;101528.81;5055140;27;96667;-29
2023/01/04 06:12:08;;;;;;;3.38;0.80;;;;;;;10.25;100.00;101533.34;5053808;27;96983;-28
2023/01/04 06:14:34;;;;;;;1.48;1.30;;;;;;;10.27;100.00;101536.81;5053626;27;100908;-30
2023/01/04 06:17:00;;;;;;;1.00;0.75;;;;;;;10.30;100.00;101535.88;5054939;27;99268;-28
2023/01/04 06:19:25;;;;;;;1.00;0.68;;;;;;;10.32;100.00;101539.34;5054654;27;96478;-29
2023/01/04 06:21:51;;;;;;;0.75;0.52;;;;;;;10.33;100.00;101541.13;5055142;27;96872;-28
2023/01/04 06:24:17;;;;;;;4.25;1.50;;;;;;;10.34;100.00;101538.31;5053465;27;100854;-29
2023/01/04 06:26:42;;;;;;;1.77;0.90;;;;;;;10.33;100.00;101524.88;5053097;27;100941;-29
2023/01/04 06:29:07;;;;;;;0.77;0.57;;;;;;;10.35;100.00;101529.25;5055473;27;96392;-29
2023/01/04 06:31:33;;;;;;;0.80;0.73;;;;;;;10.37;100.00;101529.19;5055256;27;96840;-29
2023/01/04 06:33:59;;;;;;;2.40;1.13;;;;;;;10.37;100.00;101524.66;5054929;27;98058;-29
2023/01/04 06:36:24;;;;;;;1.15;0.75;;;;;;;10.37;100.00;101529.19;5053742;27;101147;-29
2023/01/04 06:38:50;;;;;;;1.95;0.80;;;;;;;10.37;100.00;101523.78;5054759;27;96639;-29
2023/01/04 06:41:15;;;;;;;1.30;0.93;;;;;;;10.39;100.00;101524.53;5054900;27;96853;-28
2023/01/04 06:43:41;;;;;;;0.63;0.47;;;;;;;10.40;100.00;101515.47;5054055;27;99464;-28
2023/01/04 06:46:06;;;;;;;1.65;1.10;;;;;;;10.44;100.00;101510.78;5054605;27;99324;-29
2023/01/04 06:48:31;;;;;;;0.82;0.73;;;;;;;10.44;100.00;101514.38;5055100;27;96602;-29
2023/01/04 06:50:57;;;;;;;1.05;0.63;;;;;;;10.44;100.00;101522.50;5054836;27;97073;-29
2023/01/04 06:53:22;;;;;;;1.67;0.70;;;;;;;10.44;100.00;101508.97;5054532;27;100592;-28
2023/01/04 06:55:47;;;;;;;1.42;0.88;;;;;;;10.43;100.00;101490.94;5054609;27;97311;-29
2023/01/04 06:58:13;;;;;;;2.38;1.08;;;;;;;10.44;100.00;101492.72;5054692;27;96762;-29
2023/01/04 07:00:38;;;;;;;1.13;0.60;;;;;;;10.43;100.00;101496.38;5055423;27;96664;-30
2023/01/04 07:03:04;;;;;;;1.13;1.00;;;;;;;10.43;100.00;101493.66;5053136;27;100935;-29
2023/01/04 07:05:29;;;;;;;1.20;0.77;;;;;;;10.44;100.00;101492.72;5054672;27;97758;-29
2023/01/04 07:07:54;;;;;;;2.10;0.93;;;;;;;10.41;100.00;101488.31;5054503;27;96893;-29
2023/01/04 07:10:20;;;;;;;1.25;0.90;;;;;;;10.45;100.00;101478.22;5053748;27;104394;-29
2023/01/04 07:12:45;;;;;;;2.03;1.10;;;;;;;10.45;100.00;101489.03;5054511;27;97938;-29
2023/01/04 07:15:11;;;;;;;4.82;0.77;;;;;;;10.46;100.00;101479.06;5054756;27;97249;-28
2023/01/04 07:17:36;;;;;;;1.60;0.85;;;;;;;10.46;100.00;101490.78;5053255;27;96632;-29
2023/01/04 07:20:02;;;;;;;3.30;0.70;;;;;;;10.46;100.00;101488.06;5054835;27;96782;-30
2023/01/04 07:22:28;;;;;;;2.72;0.70;;;;;;;10.47;100.00;101492.56;5052646;27;101058;-29
2023/01/04 07:24:53;;;;;;;2.70;0.50;;;;;;;10.47;100.00;101486.25;5055305;27;97873;-28
2023/01/04 07:27:19;;;;;;;0.98;0.70;;;;;;;10.48;100.00;101480.75;5057450;27;96884;-29
2023/01/04 07:29:45;;;;;;;1.33;0.65;;;;;;;10.48;100.00;101483.47;5058212;27;96910;-28
2023/01/04 07:32:11;;;;;;;3.17;0.70;;;;;;;10.50;100.00;101483.41;5057231;27;97855;-30
2023/01/04 07:34:37;;;;;;;0.77;0.60;;;;;;;10.48;100.00;101474.47;5056240;27;100676;-29
2023/01/04 07:37:03;;;;;;;4.05;0.70;;;;;;;10.50;100.00;101472.56;5058086;27;96773;-29
2023/01/04 07:39:28;;;;;;;3.00;0.75;;;;;;;10.48;100.00;101453.66;5056250;27;96895;-29
2023/01/04 07:41:54;;;;;;;4.75;1.15;;;;;;;10.50;100.00;101469.84;5057546;27;98008;-28
2023/01/04 07:44:24;;;;;;;1.00;0.55;;;;;;;10.46;100.00;101442.03;5057564;27;97821;-28
2023/01/04 07:46:49;;;;;;;1.02;0.63;;;;;;;10.51;100.00;101460.75;5056509;27;96707;-29
2023/01/04 07:49:17;;;;;;;2.03;0.90;;;;;;;10.52;100.00;101474.22;5058321;27;96793;-29
2023/01/04 07:51:42;;;;;;;1.33;0.65;;;;;;;10.51;100.00;101471.59;5057252;27;99330;-29
2023/01/04 07:54:11;;;;;;;1.08;0.60;;;;;;;10.52;100.00;101466.09;5056110;27;97298;-28
2023/01/04 07:56:36;;;;;;;1.23;0.82;;;;;;;10.54;100.00;101482.28;5057184;27;96745;-29
2023/01/04 07:59:06;;;;;;;1.40;0.77;;;;;;;10.54;100.00;101479.56;5057586;27;96823;-29
2023/01/04 08:01:34;;;;;;;1.65;0.93;;;;;;;10.51;100.00;101472.50;5056913;27;99512;-29
2023/01/04 08:03:59;;;;;;;0.63;0.50;;;;;;;10.54;100.00;101482.28;5057016;27;99414;-30
2023/01/04 08:06:25;;;;;;;2.72;0.75;;;;;;;10.52;100.00;101489.63;5056106;27;96659;-29
2023/01/04 08:08:50;;;;;;;1.15;0.80;;;;;;;10.53;100.00;101486.81;5055889;27;96836;-29
2023/01/04 08:11:18;;;;;;;1.77;1.02;;;;;;;10.52;100.00;101479.66;5055867;27;97491;-28
2023/01/04 08:13:43;;;;;;;2.28;1.30;;;;;;;10.53;100.00;101478.69;5055891;27;101081;-29
2023/01/04 08:16:23;;;;;;;4.40;1.52;;;;;;;10.56;100.00;101485.81;5057815;27;96465;-29
2023/01/04 08:18:53;;;;;;;1.20;0.88;;;;;;;10.58;100.00;101487.47;5055995;27;96836;-29
2023/01/04 08:21:19;;;;;;;1.67;1.20;;;;;;;10.57;100.00;101479.41;5054963;27;100858;-29
2023/01/04 08:23:45;;;;;;;1.63;0.88;;;;;;;10.62;100.00;101497.16;5056696;27;98924;-29
2023/01/04 08:26:15;;;;;;;1.52;0.85;;;;;;;10.62;100.00;101490.88;5055130;27;96625;-29
2023/01/04 08:28:41;;;;;;;0.57;0.45;;;;;;;10.67;100.00;101493.34;5056990;27;96874;-28
2023/01/04 08:31:09;;;;;;;1.45;1.02;;;;;;;10.67;100.00;101490.66;5055205;27;101094;-29
2023/01/04 08:33:37;;;;;;;1.00;0.88;;;;;;;10.69;100.00;101502.28;5055011;27;100856;-29
2023/01/04 08:36:23;;;;;;;2.53;1.20;;;;;;;10.72;100.00;101503.00;5054882;27;97775;-28
2023/01/04 08:38:50;;;;;;;0.77;0.60;;;;;;;10.75;100.00;101505.56;5057131;27;96880;-29
2023/01/04 08:41:15;;;;;;;3.00;1.10;;;;;;;10.77;100.00;101497.34;5055219;27;100852;-29
2023/01/04 08:43:40;;;;;;;1.17;0.73;;;;;;;10.76;100.00;101498.31;5056704;27;97781;-28
2023/01/04 08:46:06;;;;;;;5.15;0.80;;;;;;;10.78;100.00;101499.97;5056091;27;96671;-30
2023/01/04 08:48:33;;;;;;;3.92;0.68;;;;;;;10.79;100.00;101523.41;5056864;27;96698;-29
2023/01/04 08:51:00;;;;;;;2.63;0.93;;;;;;;10.82;100.00;101514.22;5054888;27;101372;-28
2023/01/04 08:53:25;;;;;;;1.58;0.98;;;;;;;10.84;100.00;101525.88;5054894;27;101047;-29
2023/01/04 08:55:52;;;;;;;4.07;0.90;;;;;;;10.84;100.00;101526.78;5056765;27;96778;-29
2023/01/04 08:58:17;;;;;;;6.88;1.13;;;;;;;10.82;100.00;101519.66;5055215;27;96646;-29
2023/01/04 09:00:43;;;;;;;1.63;0.75;;;;;;;10.84;100.00;101529.47;5054637;27;101275;-30
2023/01/04 09:03:08;;;;;;;0.80;0.47;;;;;;;10.86;100.00;101529.38;5056768;27;97908;-28
2023/01/04 09:05:34;;;;;;;2.53;0.90;;;;;;;10.86;100.00;101518.53;5056717;27;96510;-29
2023/01/04 09:07:59;;;;;;;1.40;0.68;;;;;;;10.89;100.00;101536.47;5056776;27;96778;-29
2023/01/04 09:10:25;;;;;;;1.40;0.77;;;;;;;10.89;100.00;101545.47;5055627;27;97557;-28
2023/01/04 09:12:50;;;;;;;2.63;0.65;;;;;;;10.88;100.00;101532.03;5056142;27;98037;-30
2023/01/04 09:15:17;;;;;;;6.65;0.90;;;;;;;10.91;100.00;101534.56;5056315;27;96763;-30
2023/01/04 09:17:42;;;;;;;5.18;0.88;;;;;;;10.91;100.00;101540.84;5056378;27;96852;-29
2023/01/04 09:20:08;;;;;;;2.35;0.38;;;;;;;10.94;100.00;101537.09;5056039;27;98172;-29
2023/01/04 09:22:33;;;;;;;4.90;1.13;;;;;;;10.94;100.00;101546.16;5055854;27;97880;-29
2023/01/04 09:24:58;;;;;;;6.45;1.25;;;;;;;10.95;100.00;101538.88;5056314;27;96505;-29
2023/01/04 09:27:24;;;;;;;1.67;0.40;;;;;;;10.96;100.00;101541.50;5055942;27;96912;-31
2023/01/04 09:29:49;;;;;;;3.28;0.93;;;;;;;10.95;100.00;101544.31;5055794;27;97944;-29
2023/01/04 09:32:15;;;;;;;1.30;0.82;;;;;;;10.98;100.00;101541.41;5055560;27;107093;-29
2023/01/04 09:34:41;;;;;;;2.35;0.70;;;;;;;10.97;100.00;101540.56;5054278;27;96706;-29
2023/01/04 09:37:06;;;;;;;3.35;1.00;;;;;;;10.99;100.00;101551.31;5056246;27;96966;-29
2023/01/04 09:39:31;;;;;;;2.28;0.47;;;;;;;10.98;100.00;101561.28;5055583;27;97946;-29
2023/01/04 09:42:01;;;;;;;2.13;0.75;;;;;;;11.02;100.00;101549.31;5055520;27;99253;-29
2023/01/04 09:44:48;;;;;;;2.10;0.93;;;;;;;11.02;100.00;101546.59;5054359;27;96824;-30
2023/01/04 09:47:31;;;;;;;4.90;1.33;;;;;;;11.01;100.00;101555.72;5054975;27;96659;-28
2023/01/04 09:50:21;;;;;;;1.13;0.70;;;;;;;11.04;100.00;101554.66;5053975;27;101004;-31
2023/01/04 09:52:56;;;;;;;2.53;0.60;;;;;;;11.08;100.00;101550.81;5055027;27;98057;-30
2023/01/04 09:55:49;;;;;;;3.15;0.90;;;;;;;11.07;100.00;101548.22;5055745;27;96544;-29
2023/01/04 09:58:27;;;;;;;5.22;0.98;;;;;;;11.09;100.00;101558.00;5055372;27;96872;-29
2023/01/04 10:01:06;;;;;;;0.85;0.52;;;;;;;11.09;100.00;101558.00;5053418;27;101423;-29
2023/01/04 10:03:34;;;;;;;1.48;0.63;;;;;;;11.09;100.00;101563.44;5055328;27;97264;-29
2023/01/04 10:06:00;;;;;;;1.90;0.70;;;;;;;11.13;100.00;101556.00;5054428;27;96661;-31
2023/01/04 10:08:26;;;;;;;4.20;0.60;;;;;;;11.12;100.00;101549.72;5054128;27;96970;-29
2023/01/04 10:10:59;;;;;;;4.38;0.70;;;;;;;11.17;100.00;101546.75;5055069;27;99744;-31
2023/01/04 10:13:48;;;;;;;3.63;0.50;;;;;;;11.18;100.00;101545.81;5055465;27;97123;-30
2023/01/04 10:16:39;;;;;;;1.65;0.93;;;;;;;11.20;100.00;101544.78;5054033;27;96686;-29
2023/01/04 10:19:32;;;;;;;4.05;0.75;;;;;;;11.23;100.00;101549.16;5054575;27;96792;-29
2023/01/04 10:22:08;;;;;;;17.13;1.42;;;;;;;11.23;100.00;101551.88;5054658;27;98061;-29
2023/01/04 10:24:53;;;;;;;4.18;0.80;;;;;;;11.24;100.00;101529.19;5053530;27;101295;-29
2023/01/04 10:27:34;;;;;;;3.40;0.98;;;;;;;11.25;100.00;101544.53;5054383;27;96809;-30
2023/01/04 10:29:59;;;;;;;3.60;1.05;;;;;;;11.25;100.00;101536.41;5055146;27;96696;-28
2023/01/04 10:32:39;;;;;;;1.30;0.80;;;;;;;11.28;100.00;101538.94;5054586;27;98014;-29
2023/01/04 10:35:23;;;;;;;3.78;0.63;;;;;;;11.29;100.00;101546.09;5053588;27;101048;-29
2023/01/04 10:37:58;;;;;;;1.90;0.80;;;;;;;11.29;100.00;101537.97;5053780;27;96676;-29
2023/01/04 10:40:26;;;;;;;4.82;1.05;;;;;;;11.27;100.00;101529.03;5053741;27;96648;-29
2023/01/04 10:43:11;;;;;;;5.38;0.90;;;;;;;11.31;100.00;101530.63;5053024;27;100860;-29
2023/01/04 10:45:49;;;;;;;2.30;1.05;;;;;;;11.32;100.00;101543.25;5053607;27;101189;-29
2023/01/04 10:48:43;;;;;;;1.35;0.77;;;;;;;11.36;100.00;101549.38;5053592;27;96674;-29
2023/01/04 10:51:13;;;;;;;3.63;1.20;;;;;;;11.35;100.00;101536.78;5052929;27;96882;-30
2023/01/04 10:53:47;;;;;;;1.05;0.70;;;;;;;11.36;100.00;101542.09;5052859;27;101343;-29
2023/01/04 10:56:24;;;;;;;3.15;1.00;;;;;;;11.40;100.00;101535.56;5053333;27;100962;-29
2023/01/04 10:59:01;;;;;;;2.35;0.90;;;;;;;11.43;100.00;101542.66;5054366;27;96704;-29
2023/01/04 11:01:36;;;;;;;2.40;0.77;;;;;;;11.46;100.00;101539.75;5058479;27;96545;-29
2023/01/04 11:04:09;;;;;;;2.38;0.85;;;;;;;11.48;100.00;101541.44;5056929;27;100866;-29
2023/01/04 11:06:44;;;;;;;2.35;0.90;;;;;;;11.48;100.00;101527.00;5057253;27;97769;-29
2023/01/04 11:09:51;;;;;;;4.43;0.80;;;;;;;11.52;100.00;101538.56;5056954;27;96694;-29
2023/01/04 11:12:20;;;;;;;1.85;0.77;;;;;;;11.53;100.00;101538.47;5052662;27;96823;-28
2023/01/04 11:14:45;;;;;;;3.10;1.05;;;;;;;11.54;100.00;101529.38;5056452;27;101254;-29
2023/01/04 11:17:11;;;;;;;3.10;0.90;;;;;;;11.54;100.00;101521.25;5057010;27;97804;-28
2023/01/04 11:19:38;;;;;;;3.85;0.93;;;;;;;11.58;100.00;101522.81;5057833;27;96622;-31
2023/01/04 11:22:17;;;;;;;1.25;0.60;;;;;;;11.60;100.00;101514.59;5056484;27;96857;-29
2023/01/04 11:24:47;;;;;;;1.50;0.90;;;;;;;11.61;100.00;101497.38;5057780;27;99420;-29
2023/01/04 11:27:17;;;;;;;1.83;0.88;;;;;;;11.65;100.00;101509.78;5055581;27;100845;-29
2023/01/04 11:30:06;;;;;;;5.10;0.95;;;;;;;11.69;100.00;101512.25;5056727;27;96799;-30
2023/01/04 11:32:43;;;;;;;3.50;0.60;;;;;;;11.70;100.00;101507.69;5027844;27;96749;-29
2023/01/04 11:35:09;;;;;;;7.90;0.88;;;;;;;11.72;100.00;101489.50;5057871;27;98081;-29
2023/01/04 11:37:40;;;;;;;5.38;0.90;;;;;;;11.73;100.00;101493.97;5058224;27;97433;-29
2023/01/04 11:40:20;;;;;;;5.40;1.20;;;;;;;11.77;100.00;101492.81;5058145;27;97270;-29
2023/01/04 11:42:51;;;;;;;3.63;0.63;;;;;;;11.77;100.00;101497.38;5057643;27;96883;-30
2023/01/04 11:45:27;;;;;;;2.07;0.87;;;;;;;11.76;100.00;101495.63;5055163;27;100056;-29
2023/01/04 11:47:56;;;;;;;0.57;0.40;;;;;;;11.75;100.00;101505.63;5056025;27;100981;-28
2023/01/04 11:50:38;;;;;;;2.40;0.75;;;;;;;11.77;100.00;101514.53;5056189;27;96762;-29
2023/01/04 11:53:34;;;;;;;4.13;0.98;;;;;;;11.75;100.00;101502.00;5056350;27;96846;-28
2023/01/04 11:56:20;;;;;;;5.35;0.80;;;;;;;11.75;100.00;101500.19;5038930;27;100929;-28
2023/01/04 11:59:04;;;;;;;3.25;1.10;;;;;;;11.78;100.00;101502.72;5055300;27;100660;-31
2023/01/04 12:01:34;;;;;;;1.42;0.70;;;;;;;11.76;100.00;101499.22;5056242;27;96732;-29
2023/01/04 12:04:01;;;;;;;3.03;0.70;;;;;;;11.78;100.00;101494.59;5056476;27;96776;-29
2023/01/04 12:06:34;;;;;;;4.30;0.75;;;;;;;11.83;100.00;101488.91;5055057;27;100981;-29
2023/01/04 12:08:59;;;;;;;8.88;0.57;;;;;;;11.85;100.00;101493.28;5055038;27;100811;-28
2023/01/04 12:11:34;;;;;;;6.20;0.80;;;;;;;11.87;100.00;101490.53;5055410;27;96888;-28
2023/01/04 12:14:00;;;;;;;3.00;0.90;;;;;;;11.84;100.00;101494.22;5057103;27;96699;-30